Time;durP1;ratioP1;P1;durP2;ratioP2;P2;SDS_P1;SDS_P2;PMS_P1;PMS_P2;Temp;Humidity;BMP_temperature;BMP_pressure;BME280_temperature;BME280_humidity;BME280_pressure;Samples;Min_cycle;Max_cycle;Signal;HPM_P1;HPM_P2
2022/01/25 00:15:08;;;;;;;25.93;21.90;;;;;;;;;;5034052;28;20236;-66
2022/01/25 00:31:10;;;;;;;25.87;20.97;;;;;;;;;;5033928;28;20175;-67
2022/01/25 00:33:36;;;;;;;23.87;20.53;;;;;;;;;;5032014;28;20292;-66
2022/01/25 00:36:04;;;;;;;24.87;21.30;;;;;;;;;;5033517;28;20175;-66
2022/01/25 00:38:30;;;;;;;23.10;20.17;;;;;;;;;;5033513;28;20207;-66
2022/01/25 00:40:56;;;;;;;25.80;20.23;;;;;;;;;;5033523;28;20180;-66
2022/01/25 00:43:24;;;;;;;27.83;20.73;;;;;;;;;;5033790;28;20264;-66
2022/01/25 00:45:52;;;;;;;32.90;21.77;;;;;;;;;;5033961;28;20645;-66
2022/01/25 00:48:29;;;;;;;25.63;20.67;;;;;;;;;;5032095;28;20206;-66
2022/01/25 00:51:13;;;;;;;25.67;19.40;;;;;;;;;;5032037;28;20179;-66
2022/01/25 00:53:59;;;;;;;30.23;21.10;;;;;;;;;;5031851;28;20223;-66
2022/01/25 00:56:28;;;;;;;25.87;21.67;;;;;;;;;;5033683;28;20585;-66
2022/01/25 00:58:54;;;;;;;29.73;21.23;;;;;;;;;;5032556;28;20554;-66
2022/01/25 01:01:21;;;;;;;27.20;22.67;;;;;;;;;;5032119;28;20262;-66
2022/01/25 01:03:47;;;;;;;27.97;22.43;;;;;;;;;;5031914;28;20261;-66
2022/01/25 01:06:15;;;;;;;29.40;22.73;;;;;;;;;;5032048;28;20183;-66
2022/01/25 01:08:41;;;;;;;28.00;22.30;;;;;;;;;;5032975;28;20175;-67
2022/01/25 01:11:11;;;;;;;26.83;21.80;;;;;;;;;;5033164;28;20183;-66
2022/01/25 01:43:03;;;;;;;26.20;21.37;;;;;;;;;;5033433;28;20217;-66
2022/01/25 01:45:57;;;;;;;30.00;22.97;;;;;;;;;;5032920;28;20156;-66
2022/01/25 01:51:26;;;;;;;26.63;22.23;;;;;;;;;;5025488;28;20245;-66
2022/01/25 01:53:52;;;;;;;29.87;23.10;;;;;;;;;;5036164;28;20209;-66
2022/01/25 01:56:18;;;;;;;29.67;22.30;;;;;;;;;;5034932;28;20268;-66
2022/01/25 01:58:44;;;;;;;29.10;22.80;;;;;;;;;;5036232;28;20175;-67
2022/01/25 02:01:12;;;;;;;34.17;23.67;;;;;;;;;;5036164;28;20183;-66
2022/01/25 02:03:38;;;;;;;30.17;23.53;;;;;;;;;;5034844;28;20313;-66
2022/01/25 02:06:04;;;;;;;31.50;23.93;;;;;;;;;;5036020;28;20605;-67
2022/01/25 02:08:30;;;;;;;32.43;24.67;;;;;;;;;;5035885;28;20639;-66
2022/01/25 02:50:23;;;;;;;34.00;24.07;;;;;;;;;;5036801;28;20194;-66
2022/01/25 02:52:49;;;;;;;29.53;23.57;;;;;;;;;;5035183;28;20628;-66
2022/01/25 02:55:17;;;;;;;32.53;23.40;;;;;;;;;;5035853;28;20605;-66
2022/01/25 02:57:43;;;;;;;28.97;23.10;;;;;;;;;;5036142;28;20163;-66
2022/01/25 03:00:09;;;;;;;33.43;24.50;;;;;;;;;;5035199;28;20205;-66
2022/01/25 03:02:36;;;;;;;35.30;25.23;;;;;;;;;;5035648;28;20195;-66
2022/01/25 03:05:02;;;;;;;30.63;23.73;;;;;;;;;;5035257;28;20176;-66
2022/01/25 03:07:28;;;;;;;30.97;24.00;;;;;;;;;;5034895;28;20178;-66
2022/01/25 03:09:54;;;;;;;31.23;23.67;;;;;;;;;;5033674;28;20556;-66
2022/01/25 03:12:31;;;;;;;30.60;24.07;;;;;;;;;;5034829;28;20198;-66
2022/01/25 03:15:21;;;;;;;31.40;24.23;;;;;;;;;;5034835;28;20195;-66
2022/01/25 03:17:52;;;;;;;30.30;24.47;;;;;;;;;;5034634;28;20193;-67
2022/01/25 03:20:33;;;;;;;37.43;23.63;;;;;;;;;;5033666;28;20175;-66
2022/01/25 03:23:05;;;;;;;32.87;24.93;;;;;;;;;;5033601;28;20203;-66
2022/01/25 03:25:32;;;;;;;32.80;24.00;;;;;;;;;;5034872;28;20164;-66
2022/01/25 03:27:58;;;;;;;33.10;22.33;;;;;;;;;;5033389;28;20230;-66
2022/01/25 03:30:24;;;;;;;32.20;23.70;;;;;;;;;;5034488;28;20179;-66
2022/01/25 03:32:50;;;;;;;32.97;23.87;;;;;;;;;;5032898;28;20229;-66
2022/01/25 03:35:16;;;;;;;33.20;25.40;;;;;;;;;;5034655;28;20151;-66
2022/01/25 03:37:42;;;;;;;33.20;24.40;;;;;;;;;;5032992;28;20632;-66
2022/01/25 03:40:09;;;;;;;34.00;23.73;;;;;;;;;;5034199;28;20187;-67
2022/01/25 03:42:37;;;;;;;29.57;21.87;;;;;;;;;;5032839;28;20641;-66
2022/01/25 03:45:04;;;;;;;34.00;24.13;;;;;;;;;;5033779;28;20511;-66
2022/01/25 03:47:43;;;;;;;29.23;22.30;;;;;;;;;;5034633;28;20258;-66
2022/01/25 03:50:09;;;;;;;30.90;23.70;;;;;;;;;;5032960;28;20646;-66
2022/01/25 03:52:37;;;;;;;28.30;22.97;;;;;;;;;;5033996;28;20202;-66
2022/01/25 03:55:03;;;;;;;30.53;23.03;;;;;;;;;;5034052;28;20183;-67
2022/01/25 03:57:29;;;;;;;32.00;23.73;;;;;;;;;;5034002;28;20261;-66
2022/01/25 04:00:00;;;;;;;31.93;22.73;;;;;;;;;;5033840;28;20175;-66
2022/01/25 04:02:29;;;;;;;30.33;23.23;;;;;;;;;;5032595;28;20202;-67
2022/01/25 04:04:57;;;;;;;30.23;22.57;;;;;;;;;;5032596;28;20258;-66
2022/01/25 04:07:31;;;;;;;29.83;22.77;;;;;;;;;;5032489;28;20229;-66
2022/01/25 04:09:57;;;;;;;34.97;22.57;;;;;;;;;;5032445;28;20174;-66
2022/01/25 04:12:23;;;;;;;31.50;23.20;;;;;;;;;;5033976;28;20622;-66
2022/01/25 04:14:49;;;;;;;32.40;22.50;;;;;;;;;;5033301;28;20202;-67
2022/01/25 04:17:19;;;;;;;30.67;22.23;;;;;;;;;;5032353;28;20258;-66
2022/01/25 04:19:57;;;;;;;29.97;23.00;;;;;;;;;;5032392;28;20175;-66
2022/01/25 04:25:11;;;;;;;35.13;26.43;;;;;;;;;;5033793;28;20527;-66
2022/01/25 04:27:37;;;;;;;32.10;23.20;;;;;;;;;;5033324;28;20178;-66
2022/01/25 04:30:04;;;;;;;36.23;24.77;;;;;;;;;;5033555;28;20179;-66
2022/01/25 04:32:41;;;;;;;35.03;26.40;;;;;;;;;;5031891;28;20797;-67
2022/01/25 04:48:55;;;;;;;32.00;23.40;;;;;;;;;;5036114;28;20194;-66
2022/01/25 04:54:03;;;;;;;31.07;22.97;;;;;;;;;;5036645;28;20203;-66
2022/01/25 04:57:12;;;;;;;32.57;23.63;;;;;;;;;;5034697;28;20177;-66
2022/01/25 05:02:13;;;;;;;32.83;23.63;;;;;;;;;;5034090;28;20170;-66
2022/01/25 05:04:45;;;;;;;34.03;25.20;;;;;;;;;;5033646;28;20251;-66
2022/01/25 05:09:47;;;;;;;31.70;23.30;;;;;;;;;;5033502;28;20250;-66
2022/01/25 05:12:14;;;;;;;31.30;22.33;;;;;;;;;;5031676;28;20175;-66
2022/01/25 05:14:57;;;;;;;36.57;23.90;;;;;;;;;;5032049;28;20257;-66
2022/01/25 05:17:32;;;;;;;31.53;23.50;;;;;;;;;;5031830;28;20160;-66
2022/01/25 05:22:43;;;;;;;30.77;22.97;;;;;;;;;;5033348;28;20273;-66
2022/01/25 05:25:09;;;;;;;32.93;23.63;;;;;;;;;;5032946;28;20244;-66
2022/01/25 05:27:35;;;;;;;28.80;22.43;;;;;;;;;;5036014;28;20723;-66
2022/01/25 05:30:01;;;;;;;30.80;23.33;;;;;;;;;;5037028;28;20179;-66
2022/01/25 05:32:27;;;;;;;32.53;23.87;;;;;;;;;;5036570;28;20698;-66
2022/01/25 05:34:53;;;;;;;32.10;23.90;;;;;;;;;;5053354;22;20687;-64
2022/01/25 05:37:19;;;;;;;29.93;22.80;;;;;;;;;;5022055;28;20314;-64
2022/01/25 05:39:47;;;;;;;36.00;23.80;;;;;;;;;;5022816;28;20219;-63
2022/01/25 05:42:31;;;;;;;32.93;23.03;;;;;;;;;;5023271;28;20172;-64
2022/01/25 05:45:11;;;;;;;32.37;23.37;;;;;;;;;;5023560;28;20195;-64
2022/01/25 05:47:38;;;;;;;34.27;23.50;;;;;;;;;;5022811;28;20616;-64
2022/01/25 05:50:04;;;;;;;31.40;22.43;;;;;;;;;;5022018;28;20191;-64
2022/01/25 05:52:30;;;;;;;32.63;23.50;;;;;;;;;;5021567;28;20188;-66
2022/01/25 05:54:57;;;;;;;31.97;23.10;;;;;;;;;;5022460;28;20303;-64
2022/01/25 05:57:23;;;;;;;34.70;23.93;;;;;;;;;;5023118;28;20727;-63
2022/01/25 05:59:49;;;;;;;32.97;23.47;;;;;;;;;;5023210;28;20180;-64
2022/01/25 06:02:18;;;;;;;33.77;23.40;;;;;;;;;;5021846;28;20218;-64
2022/01/25 06:04:45;;;;;;;34.47;24.30;;;;;;;;;;5021279;28;20237;-65
2022/01/25 06:07:11;;;;;;;32.13;23.27;;;;;;;;;;5021774;28;20187;-64
2022/01/25 06:09:37;;;;;;;32.93;24.07;;;;;;;;;;5021616;28;20210;-65
2022/01/25 06:12:03;;;;;;;31.43;23.10;;;;;;;;;;5021397;28;20183;-65
2022/01/25 06:14:29;;;;;;;33.60;23.43;;;;;;;;;;5023363;28;20215;-65
2022/01/25 06:16:55;;;;;;;33.87;24.87;;;;;;;;;;5023095;28;20203;-65
2022/01/25 06:19:21;;;;;;;37.20;26.00;;;;;;;;;;5021456;28;20525;-66
2022/01/25 06:21:47;;;;;;;31.17;23.67;;;;;;;;;;5022460;28;20176;-64
2022/01/25 06:24:12;;;;;;;33.07;22.90;;;;;;;;;;5022600;28;20206;-63
2022/01/25 06:26:38;;;;;;;30.13;24.37;;;;;;;;;;5021812;28;20648;-64
2022/01/25 06:29:04;;;;;;;30.33;24.67;;;;;;;;;;5021580;28;20266;-65
2022/01/25 06:31:31;;;;;;;34.33;25.17;;;;;;;;;;5021857;28;20187;-65
2022/01/25 06:33:57;;;;;;;34.67;24.60;;;;;;;;;;5021432;28;20216;-65
2022/01/25 06:36:24;;;;;;;31.97;23.60;;;;;;;;;;5020596;28;20172;-63
2022/01/25 06:38:49;;;;;;;37.07;24.77;;;;;;;;;;5020605;28;20183;-65
2022/01/25 06:41:17;;;;;;;33.10;24.50;;;;;;;;;;5020146;28;20270;-64
2022/01/25 06:43:43;;;;;;;32.27;24.50;;;;;;;;;;5021659;28;20179;-63
2022/01/25 06:46:09;;;;;;;30.93;24.57;;;;;;;;;;5022460;28;20179;-64
2022/01/25 06:48:35;;;;;;;28.33;22.73;;;;;;;;;;5020589;28;20191;-63
2022/01/25 06:51:01;;;;;;;32.13;22.80;;;;;;;;;;5021646;28;20184;-64
2022/01/25 06:53:27;;;;;;;35.00;22.83;;;;;;;;;;5022134;28;20291;-64
2022/01/25 06:55:54;;;;;;;33.07;23.03;;;;;;;;;;5021475;28;20199;-65
2022/01/25 06:58:20;;;;;;;33.10;22.90;;;;;;;;;;5021671;28;20180;-64
2022/01/25 07:00:46;;;;;;;32.00;23.60;;;;;;;;;;5021618;28;20180;-65
2022/01/25 07:03:12;;;;;;;32.93;24.50;;;;;;;;;;5020450;28;20180;-65
2022/01/25 07:05:38;;;;;;;31.27;23.20;;;;;;;;;;5021727;28;20203;-64
2022/01/25 07:08:04;;;;;;;34.90;23.07;;;;;;;;;;5021873;28;20172;-65
2022/01/25 07:10:31;;;;;;;33.30;22.60;;;;;;;;;;5021452;28;20310;-64
2022/01/25 07:12:56;;;;;;;30.90;21.03;;;;;;;;;;5021251;28;20204;-67
2022/01/25 07:15:22;;;;;;;30.57;22.40;;;;;;;;;;5021235;28;20222;-66
2022/01/25 07:17:48;;;;;;;32.70;22.03;;;;;;;;;;5021614;28;20263;-65
2022/01/25 07:20:15;;;;;;;32.10;23.57;;;;;;;;;;5020615;28;20218;-64
2022/01/25 07:22:41;;;;;;;27.17;20.87;;;;;;;;;;5021569;28;20230;-65
2022/01/25 07:25:09;;;;;;;29.87;23.23;;;;;;;;;;5021617;28;20200;-68
2022/01/25 07:27:35;;;;;;;30.70;22.73;;;;;;;;;;5021911;28;20194;-67
2022/01/25 07:30:01;;;;;;;28.93;21.50;;;;;;;;;;5021204;28;20176;-65
2022/01/25 07:32:27;;;;;;;29.40;22.03;;;;;;;;;;5021277;28;20184;-64
2022/01/25 07:34:53;;;;;;;29.77;21.87;;;;;;;;;;5021049;28;20296;-63
2022/01/25 07:37:19;;;;;;;30.27;21.87;;;;;;;;;;5021417;28;20215;-64
2022/01/25 07:39:47;;;;;;;30.90;21.80;;;;;;;;;;5018951;28;20190;-67
2022/01/25 07:42:13;;;;;;;29.60;21.53;;;;;;;;;;5020723;28;20168;-66
2022/01/25 07:44:39;;;;;;;30.83;21.93;;;;;;;;;;5019306;28;20215;-64
2022/01/25 07:47:06;;;;;;;30.87;22.77;;;;;;;;;;5019609;28;20667;-63
2022/01/25 07:49:32;;;;;;;35.07;24.87;;;;;;;;;;5020270;28;20202;-65
2022/01/25 07:51:58;;;;;;;33.93;23.87;;;;;;;;;;5021089;28;20187;-63
2022/01/25 07:54:25;;;;;;;29.50;22.43;;;;;;;;;;5019069;28;20262;-63
2022/01/25 07:56:51;;;;;;;35.40;24.23;;;;;;;;;;5018680;28;20526;-64
2022/01/25 07:59:17;;;;;;;35.57;23.53;;;;;;;;;;5018968;28;20191;-65
2022/01/25 08:01:43;;;;;;;32.83;23.40;;;;;;;;;;5019455;28;20179;-63
2022/01/25 08:04:10;;;;;;;35.10;25.13;;;;;;;;;;5021089;28;20204;-64
2022/01/25 08:06:37;;;;;;;31.07;22.97;;;;;;;;;;5021024;28;20183;-64
2022/01/25 08:09:03;;;;;;;33.43;23.13;;;;;;;;;;5018858;28;20188;-64
2022/01/25 08:11:30;;;;;;;36.60;24.10;;;;;;;;;;5020624;28;20179;-66
2022/01/25 08:14:11;;;;;;;32.93;24.03;;;;;;;;;;5020810;28;20206;-64
2022/01/25 08:16:37;;;;;;;34.50;23.27;;;;;;;;;;5020089;28;20172;-65
2022/01/25 08:19:03;;;;;;;35.47;24.37;;;;;;;;;;5020576;28;20210;-64
2022/01/25 08:21:29;;;;;;;31.57;23.50;;;;;;;;;;5018937;28;20229;-65
2022/01/25 08:23:55;;;;;;;33.10;22.70;;;;;;;;;;5020801;28;20176;-62
2022/01/25 08:26:21;;;;;;;33.73;23.53;;;;;;;;;;5019841;28;20180;-65
2022/01/25 08:28:46;;;;;;;33.70;25.00;;;;;;;;;;5019500;28;20248;-64
2022/01/25 08:31:13;;;;;;;33.67;24.77;;;;;;;;;;5020094;28;20183;-65
2022/01/25 08:33:39;;;;;;;35.13;24.63;;;;;;;;;;5019971;28;20200;-64
2022/01/25 08:36:05;;;;;;;33.83;24.57;;;;;;;;;;5020160;28;20187;-64
2022/01/25 08:38:31;;;;;;;40.00;24.73;;;;;;;;;;5020087;28;20176;-64
2022/01/25 08:40:57;;;;;;;37.23;25.17;;;;;;;;;;5020711;28;20206;-64
2022/01/25 08:43:24;;;;;;;35.17;23.70;;;;;;;;;;5019784;28;20219;-70
2022/01/25 08:45:50;;;;;;;34.30;24.87;;;;;;;;;;5018703;28;20203;-68
2022/01/25 08:48:16;;;;;;;36.97;25.60;;;;;;;;;;5020345;28;20594;-63
2022/01/25 08:50:42;;;;;;;37.50;26.07;;;;;;;;;;5018539;28;20223;-66
2022/01/25 08:53:09;;;;;;;48.13;29.07;;;;;;;;;;5020014;28;20203;-64
2022/01/25 08:55:35;;;;;;;40.50;27.93;;;;;;;;;;5018386;28;20599;-67
2022/01/25 08:58:01;;;;;;;41.17;27.60;;;;;;;;;;5019836;28;20643;-66
2022/01/25 09:00:27;;;;;;;41.20;25.53;;;;;;;;;;5020043;28;20200;-65
2022/01/25 09:02:53;;;;;;;43.87;27.70;;;;;;;;;;5024249;28;20656;-65
2022/01/25 09:05:19;;;;;;;41.20;26.90;;;;;;;;;;5024233;28;20199;-65
2022/01/25 09:07:45;;;;;;;41.67;27.70;;;;;;;;;;5023001;28;20180;-63
2022/01/25 09:10:11;;;;;;;40.50;26.23;;;;;;;;;;5023798;28;20179;-64
2022/01/25 09:12:37;;;;;;;37.40;26.77;;;;;;;;;;5022662;28;20265;-65
2022/01/25 09:15:04;;;;;;;42.87;27.33;;;;;;;;;;5024064;28;20215;-64
2022/01/25 09:17:30;;;;;;;39.73;26.30;;;;;;;;;;5024151;28;20308;-73
2022/01/25 09:19:56;;;;;;;39.43;26.50;;;;;;;;;;5022603;28;20242;-63
2022/01/25 09:22:22;;;;;;;159.57;91.50;;;;;;;;;;5023692;28;20180;-68
2022/01/25 09:24:49;;;;;;;55.33;30.63;;;;;;;;;;5023248;28;20200;-64
2022/01/25 09:27:15;;;;;;;57.03;35.93;;;;;;;;;;5022004;28;20191;-64
2022/01/25 09:29:41;;;;;;;43.03;27.93;;;;;;;;;;5023245;28;20188;-64
2022/01/25 09:32:07;;;;;;;46.43;30.40;;;;;;;;;;5022916;28;20285;-65
2022/01/25 09:34:33;;;;;;;58.13;43.83;;;;;;;;;;5021390;28;20250;-65
2022/01/25 09:36:59;;;;;;;68.97;43.67;;;;;;;;;;5022906;28;20190;-69
2022/01/25 09:39:25;;;;;;;57.63;37.53;;;;;;;;;;5022143;28;20622;-66
2022/01/25 09:41:53;;;;;;;58.63;36.40;;;;;;;;;;5022733;28;20175;-64
2022/01/25 09:44:19;;;;;;;52.20;33.43;;;;;;;;;;5022688;28;20199;-66
2022/01/25 09:46:45;;;;;;;48.73;32.30;;;;;;;;;;5022573;28;20187;-65
2022/01/25 09:49:11;;;;;;;49.13;31.67;;;;;;;;;;5022694;28;20187;-65
2022/01/25 09:51:43;;;;;;;58.70;36.80;;;;;;;;;;5021305;28;20184;-64
2022/01/25 09:54:09;;;;;;;48.60;29.50;;;;;;;;;;5021497;28;20270;-66
2022/01/25 09:56:35;;;;;;;95.87;57.40;;;;;;;;;;5022409;28;20632;-64
2022/01/25 09:59:01;;;;;;;53.97;33.67;;;;;;;;;;5022447;28;20180;-64
2022/01/25 10:01:29;;;;;;;45.13;30.63;;;;;;;;;;5022048;28;20180;-64
2022/01/25 10:03:55;;;;;;;48.37;31.03;;;;;;;;;;5022857;28;20697;-65
2022/01/25 10:06:22;;;;;;;51.10;31.63;;;;;;;;;;5021432;28;20710;-65
2022/01/25 10:08:52;;;;;;;58.27;36.23;;;;;;;;;;5021500;28;20207;-66
2022/01/25 10:11:21;;;;;;;46.77;29.20;;;;;;;;;;5016875;28;20183;-66
2022/01/25 10:13:50;;;;;;;44.67;27.53;;;;;;;;;;5014322;28;20211;-65
2022/01/25 10:16:17;;;;;;;44.67;29.20;;;;;;;;;;5015739;28;20187;-66
2022/01/25 10:18:45;;;;;;;48.87;29.10;;;;;;;;;;5016089;28;20230;-66
2022/01/25 10:21:13;;;;;;;52.40;29.20;;;;;;;;;;5015992;28;20658;-64
2022/01/25 10:23:41;;;;;;;46.03;28.53;;;;;;;;;;5015190;28;20594;-65
2022/01/25 10:26:08;;;;;;;51.07;29.43;;;;;;;;;;5014998;28;20188;-66
2022/01/25 10:28:34;;;;;;;51.10;30.47;;;;;;;;;;5014889;28;20290;-66
2022/01/25 10:31:02;;;;;;;48.90;29.77;;;;;;;;;;5016567;28;20268;-64
2022/01/25 10:33:30;;;;;;;51.80;30.50;;;;;;;;;;5016698;28;20203;-67
2022/01/25 10:35:58;;;;;;;51.50;28.97;;;;;;;;;;5015980;28;20218;-65
2022/01/25 10:38:25;;;;;;;43.50;26.67;;;;;;;;;;5016082;28;20180;-65
2022/01/25 10:41:12;;;;;;;48.27;29.00;;;;;;;;;;5014412;28;20183;-66
2022/01/25 10:43:38;;;;;;;50.80;31.33;;;;;;;;;;5013970;28;20195;-67
2022/01/25 10:46:10;;;;;;;44.40;29.37;;;;;;;;;;5014293;28;20667;-67
2022/01/25 10:48:38;;;;;;;46.63;28.27;;;;;;;;;;5015468;28;20180;-65
2022/01/25 10:51:06;;;;;;;47.73;29.37;;;;;;;;;;5016433;28;20206;-65
2022/01/25 10:53:32;;;;;;;49.17;28.83;;;;;;;;;;5015064;28;20207;-65
2022/01/25 10:56:00;;;;;;;51.43;30.30;;;;;;;;;;5015605;28;20191;-66
2022/01/25 10:58:26;;;;;;;51.50;30.70;;;;;;;;;;5015719;28;20543;-65
2022/01/25 11:00:52;;;;;;;46.57;30.03;;;;;;;;;;5015635;28;20180;-66
2022/01/25 11:03:26;;;;;;;47.70;27.37;;;;;;;;;;5014600;28;20180;-66
2022/01/25 11:05:52;;;;;;;49.87;29.50;;;;;;;;;;5016124;28;20211;-66
2022/01/25 11:08:20;;;;;;;46.33;27.97;;;;;;;;;;5016333;28;20183;-65
2022/01/25 11:10:52;;;;;;;47.40;28.10;;;;;;;;;;5014886;28;20572;-65
2022/01/25 11:13:34;;;;;;;50.10;31.27;;;;;;;;;;5014541;28;20208;-66
2022/01/25 11:16:02;;;;;;;47.43;28.40;;;;;;;;;;5015375;28;20196;-65
2022/01/25 11:18:30;;;;;;;51.27;31.20;;;;;;;;;;5015709;28;20179;-66
2022/01/25 11:20:57;;;;;;;55.17;29.43;;;;;;;;;;5016376;28;20245;-65
2022/01/25 11:23:23;;;;;;;52.43;30.20;;;;;;;;;;5014934;28;20188;-66
2022/01/25 11:25:50;;;;;;;48.53;28.70;;;;;;;;;;5014737;28;20203;-66
2022/01/25 11:28:16;;;;;;;54.17;30.77;;;;;;;;;;5014889;28;20534;-66
2022/01/25 11:30:42;;;;;;;52.70;32.50;;;;;;;;;;5014616;28;20203;-66
2022/01/25 11:33:11;;;;;;;49.30;28.63;;;;;;;;;;5014962;28;20234;-65
2022/01/25 11:35:37;;;;;;;54.13;30.80;;;;;;;;;;5013323;28;20222;-66
2022/01/25 11:38:04;;;;;;;48.27;29.53;;;;;;;;;;5014696;28;20180;-65
2022/01/25 11:40:37;;;;;;;51.97;31.27;;;;;;;;;;5014660;28;20185;-66
2022/01/25 11:43:05;;;;;;;53.40;30.30;;;;;;;;;;5014351;28;20644;-65
2022/01/25 11:45:33;;;;;;;49.30;30.27;;;;;;;;;;5014626;28;20200;-64
2022/01/25 11:47:59;;;;;;;56.73;32.77;;;;;;;;;;5013117;28;20226;-66
2022/01/25 11:50:27;;;;;;;59.30;33.07;;;;;;;;;;5014290;28;20176;-67
2022/01/25 11:52:54;;;;;;;48.83;28.90;;;;;;;;;;5013088;28;20708;-66
2022/01/25 11:55:20;;;;;;;55.57;31.00;;;;;;;;;;5013084;28;20248;-66
2022/01/25 11:57:47;;;;;;;49.47;29.17;;;;;;;;;;5018211;23;20220;-65
2022/01/25 12:00:14;;;;;;;56.23;31.50;;;;;;;;;;4975274;28;20177;-67
2022/01/25 12:02:44;;;;;;;57.37;32.33;;;;;;;;;;4973772;28;20185;-67
2022/01/25 12:05:12;;;;;;;57.67;33.33;;;;;;;;;;4974990;28;20185;-67
2022/01/25 12:07:42;;;;;;;63.97;34.27;;;;;;;;;;4973617;28;20208;-67
2022/01/25 12:10:27;;;;;;;54.87;32.07;;;;;;;;;;4975216;28;20165;-66
2022/01/25 12:13:09;;;;;;;58.97;37.37;;;;;;;;;;4974827;28;20185;-67
2022/01/25 12:15:35;;;;;;;57.87;32.30;;;;;;;;;;4973637;28;20197;-67
2022/01/25 12:18:02;;;;;;;60.07;33.77;;;;;;;;;;4974691;28;20677;-66
2022/01/25 12:20:29;;;;;;;58.20;31.27;;;;;;;;;;4974861;28;20227;-67
2022/01/25 12:23:24;;;;;;;53.80;31.33;;;;;;;;;;4973428;28;20661;-67
2022/01/25 12:25:54;;;;;;;52.03;30.60;;;;;;;;;;4964941;28;20200;-67
2022/01/25 12:28:24;;;;;;;56.90;32.13;;;;;;;;;;4974659;28;20205;-66
2022/01/25 12:30:50;;;;;;;61.33;35.87;;;;;;;;;;4973309;28;20271;-67
2022/01/25 12:33:16;;;;;;;55.20;32.70;;;;;;;;;;4973141;28;20216;-67
2022/01/25 12:35:47;;;;;;;54.93;31.13;;;;;;;;;;4974191;28;20185;-66
2022/01/25 12:38:15;;;;;;;58.67;32.90;;;;;;;;;;4974421;28;20200;-67
2022/01/25 12:40:42;;;;;;;53.20;30.57;;;;;;;;;;4973228;28;20188;-66
2022/01/25 12:43:10;;;;;;;61.63;33.27;;;;;;;;;;4974590;28;20173;-66
2022/01/25 12:45:59;;;;;;;60.57;36.83;;;;;;;;;;4973201;28;20177;-67
2022/01/25 12:48:28;;;;;;;56.87;32.60;;;;;;;;;;4967801;28;20217;-67
2022/01/25 12:50:55;;;;;;;60.40;35.83;;;;;;;;;;4973062;28;20554;-67
2022/01/25 12:53:22;;;;;;;64.07;36.57;;;;;;;;;;4974189;28;20204;-67
2022/01/25 12:55:49;;;;;;;55.77;32.67;;;;;;;;;;4973047;28;20185;-66
2022/01/25 12:58:15;;;;;;;59.23;32.53;;;;;;;;;;4974265;28;20251;-67
2022/01/25 13:00:43;;;;;;;69.40;35.87;;;;;;;;;;4974475;28;20689;-67
2022/01/25 13:03:21;;;;;;;61.97;34.37;;;;;;;;;;4974143;28;20201;-67
2022/01/25 13:05:52;;;;;;;58.10;33.00;;;;;;;;;;4974453;28;20668;-66
2022/01/25 13:08:23;;;;;;;58.73;34.20;;;;;;;;;;4974193;28;20197;-66
2022/01/25 13:10:50;;;;;;;70.17;42.57;;;;;;;;;;4974777;28;20176;-67
2022/01/25 13:13:24;;;;;;;67.70;36.00;;;;;;;;;;4974140;28;20236;-67
2022/01/25 13:15:56;;;;;;;54.73;31.80;;;;;;;;;;4974219;28;20181;-67
2022/01/25 13:18:24;;;;;;;57.77;34.60;;;;;;;;;;4973097;28;20212;-66
2022/01/25 13:20:59;;;;;;;57.93;34.73;;;;;;;;;;4974144;28;20181;-66
2022/01/25 13:23:25;;;;;;;68.27;39.60;;;;;;;;;;4974292;28;20219;-67
2022/01/25 13:26:10;;;;;;;54.37;31.40;;;;;;;;;;4972920;28;20185;-67
2022/01/25 13:28:51;;;;;;;60.83;36.13;;;;;;;;;;4974000;28;20699;-67
2022/01/25 13:31:18;;;;;;;57.57;33.50;;;;;;;;;;4972804;28;20177;-67
2022/01/25 13:33:44;;;;;;;53.90;32.80;;;;;;;;;;4973910;28;20228;-66
2022/01/25 13:36:14;;;;;;;54.30;32.10;;;;;;;;;;4972679;28;20185;-67
2022/01/25 13:38:41;;;;;;;61.27;33.93;;;;;;;;;;4973939;28;20696;-67
2022/01/25 13:46:31;;;;;;;53.67;32.47;;;;;;;;;;4974561;28;20169;-66
2022/01/25 13:48:58;;;;;;;53.00;29.83;;;;;;;;;;4976050;28;20216;-66
2022/01/25 13:51:25;;;;;;;51.30;29.27;;;;;;;;;;4977424;28;20308;-67
2022/01/25 13:53:52;;;;;;;53.60;31.00;;;;;;;;;;4977651;28;20275;-67
2022/01/25 13:56:18;;;;;;;55.63;32.77;;;;;;;;;;4976044;28;20189;-67
2022/01/25 13:58:49;;;;;;;49.40;30.23;;;;;;;;;;4977101;28;20227;-67
2022/01/25 14:01:15;;;;;;;60.70;35.07;;;;;;;;;;4976038;28;20217;-67
2022/01/25 14:03:51;;;;;;;57.70;32.53;;;;;;;;;;4975952;28;20282;-67
2022/01/25 14:06:20;;;;;;;57.37;34.67;;;;;;;;;;4975927;28;20271;-67
2022/01/25 14:08:46;;;;;;;56.50;32.53;;;;;;;;;;4977462;28;20624;-67
2022/01/25 14:11:18;;;;;;;78.83;46.40;;;;;;;;;;4977233;28;20708;-67
2022/01/25 14:24:32;;;;;;;59.90;34.30;;;;;;;;;;4977328;28;20630;-67
2022/01/25 14:26:58;;;;;;;56.33;32.50;;;;;;;;;;4976696;28;20556;-66
2022/01/25 14:29:25;;;;;;;65.63;33.90;;;;;;;;;;4976841;28;20232;-67
2022/01/25 14:31:51;;;;;;;55.70;33.90;;;;;;;;;;4976761;28;20300;-67
2022/01/25 14:34:19;;;;;;;53.10;30.90;;;;;;;;;;4976597;28;20204;-67
2022/01/25 14:36:48;;;;;;;52.13;31.70;;;;;;;;;;4976644;28;20573;-67
2022/01/25 14:39:15;;;;;;;64.53;36.57;;;;;;;;;;4976644;28;20205;-67
2022/01/25 14:41:41;;;;;;;52.47;30.87;;;;;;;;;;4975268;28;20185;-67
2022/01/25 14:44:07;;;;;;;107.27;56.23;;;;;;;;;;4976796;28;20185;-67
2022/01/25 14:46:35;;;;;;;135.60;77.60;;;;;;;;;;4976448;28;20188;-66
2022/01/25 14:49:14;;;;;;;66.33;42.17;;;;;;;;;;4976210;28;20565;-67
2022/01/25 14:51:42;;;;;;;56.33;33.20;;;;;;;;;;4976632;28;20262;-67
2022/01/25 14:54:09;;;;;;;55.37;32.57;;;;;;;;;;4976229;28;20201;-67
2022/01/25 14:56:36;;;;;;;55.53;32.93;;;;;;;;;;4976249;28;20193;-67
2022/01/25 14:59:23;;;;;;;52.83;34.07;;;;;;;;;;4976047;28;20217;-68
2022/01/25 15:01:49;;;;;;;62.43;33.43;;;;;;;;;;4976908;28;20181;-67
2022/01/25 15:04:15;;;;;;;58.73;34.43;;;;;;;;;;4976282;28;20196;-66
2022/01/25 15:06:41;;;;;;;62.60;37.17;;;;;;;;;;4976263;28;20177;-66
2022/01/25 15:09:09;;;;;;;58.37;34.40;;;;;;;;;;4975031;28;20263;-66
2022/01/25 15:11:35;;;;;;;54.20;33.37;;;;;;;;;;4976203;28;20181;-66
2022/01/25 15:14:08;;;;;;;58.63;34.00;;;;;;;;;;4975023;28;20708;-66
2022/01/25 15:16:35;;;;;;;60.33;33.90;;;;;;;;;;4976365;28;20184;-66
2022/01/25 15:19:01;;;;;;;61.77;36.90;;;;;;;;;;4975960;28;20197;-66
2022/01/25 15:21:27;;;;;;;66.03;36.53;;;;;;;;;;4974572;28;20328;-66
2022/01/25 15:23:53;;;;;;;62.33;37.43;;;;;;;;;;4974558;28;20713;-66
2022/01/25 15:26:19;;;;;;;68.27;36.63;;;;;;;;;;4976427;28;20189;-67
2022/01/25 15:28:49;;;;;;;68.87;37.13;;;;;;;;;;4974385;28;20205;-67
2022/01/25 15:31:18;;;;;;;61.13;34.03;;;;;;;;;;4974394;28;20189;-66
2022/01/25 15:33:45;;;;;;;60.97;35.23;;;;;;;;;;4974305;28;20209;-67
2022/01/25 15:36:16;;;;;;;65.60;34.83;;;;;;;;;;4975890;28;20516;-67
2022/01/25 15:38:42;;;;;;;66.40;35.07;;;;;;;;;;4974089;28;20677;-67
2022/01/25 15:41:10;;;;;;;65.33;35.30;;;;;;;;;;4975614;28;20184;-67
2022/01/25 15:43:41;;;;;;;68.20;36.13;;;;;;;;;;4975319;28;20228;-67
2022/01/25 15:46:08;;;;;;;66.47;37.20;;;;;;;;;;4974312;28;20543;-66
2022/01/25 15:48:35;;;;;;;77.80;39.43;;;;;;;;;;4975344;28;20197;-67
2022/01/25 15:51:01;;;;;;;68.63;39.80;;;;;;;;;;4975268;28;20692;-67
2022/01/25 15:53:27;;;;;;;63.37;37.00;;;;;;;;;;4975174;28;20201;-67
2022/01/25 15:55:54;;;;;;;63.40;36.70;;;;;;;;;;4975431;28;20209;-67
2022/01/25 15:58:20;;;;;;;57.13;33.80;;;;;;;;;;4974945;28;20725;-67
2022/01/25 16:00:49;;;;;;;62.47;35.47;;;;;;;;;;4975706;28;20184;-67
2022/01/25 16:03:20;;;;;;;66.23;36.57;;;;;;;;;;4975149;28;20252;-67
2022/01/25 16:05:46;;;;;;;71.57;39.73;;;;;;;;;;4973752;28;20615;-67
2022/01/25 16:08:14;;;;;;;92.37;53.27;;;;;;;;;;4973783;28;20197;-67
2022/01/25 16:10:41;;;;;;;72.57;41.57;;;;;;;;;;4975211;28;20169;-66
2022/01/25 16:13:07;;;;;;;74.80;41.30;;;;;;;;;;4975261;28;20666;-67
2022/01/25 16:15:33;;;;;;;69.47;40.20;;;;;;;;;;4975394;28;20208;-67
2022/01/25 16:17:59;;;;;;;65.17;35.27;;;;;;;;;;4974990;28;20197;-66
2022/01/25 16:20:27;;;;;;;72.10;37.27;;;;;;;;;;4975002;28;20185;-67
2022/01/25 16:22:53;;;;;;;62.27;31.47;;;;;;;;;;4974904;28;20593;-67
2022/01/25 16:25:19;;;;;;;65.23;36.47;;;;;;;;;;4973630;28;20327;-67
2022/01/25 16:27:45;;;;;;;65.37;35.83;;;;;;;;;;4980895;28;20208;-67
2022/01/25 16:30:11;;;;;;;62.30;32.93;;;;;;;;;;4981183;28;20185;-66
2022/01/25 16:32:42;;;;;;;56.60;32.73;;;;;;;;;;4982173;28;20669;-67
2022/01/25 16:35:09;;;;;;;59.33;32.50;;;;;;;;;;4978367;28;20217;-66
2022/01/25 16:37:35;;;;;;;64.90;36.10;;;;;;;;;;4974895;28;20577;-67
2022/01/25 16:40:01;;;;;;;66.40;42.13;;;;;;;;;;4975088;28;20256;-67
2022/01/25 16:42:26;;;;;;;57.87;33.30;;;;;;;;;;4975442;28;20638;-67
2022/01/25 16:44:56;;;;;;;53.07;31.10;;;;;;;;;;4974954;28;20181;-67